sensor_id;sensor_type;location;lat;lon;timestamp;P1;durP1;ratioP1;P2;durP2;ratioP2
53618;SDS011;39505;53.040;18.488;2022-12-20T00:00:06;70.80;;;38.05;;
53618;SDS011;39505;53.040;18.488;2022-12-20T00:00:31;72.22;;;38.08;;
53618;SDS011;39505;53.040;18.488;2022-12-20T00:00:58;70.07;;;37.10;;
53618;SDS011;39505;53.040;18.488;2022-12-20T00:01:12;68.82;;;36.95;;
53618;SDS011;39505;53.040;18.488;2022-12-20T00:01:27;68.32;;;36.42;;
53618;SDS011;39505;53.040;18.488;2022-12-20T00:01:42;69.50;;;36.58;;
53618;SDS011;39505;53.040;18.488;2022-12-20T00:01:54;71.60;;;37.03;;
53618;SDS011;39505;53.040;18.488;2022-12-20T00:02:07;72.25;;;37.30;;
53618;SDS011;39505;53.040;18.488;2022-12-20T00:02:21;71.22;;;37.15;;
53618;SDS011;39505;53.040;18.488;2022-12-20T00:02:35;70.32;;;36.97;;
53618;SDS011;39505;53.040;18.488;2022-12-20T00:02:48;68.25;;;36.42;;
53618;SDS011;39505;53.040;18.488;2022-12-20T00:03:01;66.22;;;35.97;;
53618;SDS011;39505;53.040;18.488;2022-12-20T00:03:14;66.65;;;35.95;;
53618;SDS011;39505;53.040;18.488;2022-12-20T00:03:27;70.43;;;36.38;;
53618;SDS011;39505;53.040;18.488;2022-12-20T00:03:40;71.50;;;36.40;;
53618;SDS011;39505;53.040;18.488;2022-12-20T00:03:53;67.57;;;35.38;;
53618;SDS011;39505;53.040;18.488;2022-12-20T00:04:08;63.15;;;34.38;;
53618;SDS011;39505;53.040;18.488;2022-12-20T00:04:23;65.13;;;34.78;;
53618;SDS011;39505;53.040;18.488;2022-12-20T00:04:36;67.35;;;34.85;;
53618;SDS011;39505;53.040;18.488;2022-12-20T00:04:48;67.95;;;35.17;;
53618;SDS011;39505;53.040;18.488;2022-12-20T00:05:01;66.03;;;35.13;;
53618;SDS011;39505;53.040;18.488;2022-12-20T00:05:14;65.68;;;35.32;;
53618;SDS011;39505;53.040;18.488;2022-12-20T00:05:27;65.97;;;35.25;;
53618;SDS011;39505;53.040;18.488;2022-12-20T00:05:40;67.50;;;35.30;;
53618;SDS011;39505;53.040;18.488;2022-12-20T00:05:54;68.82;;;35.13;;
53618;SDS011;39505;53.040;18.488;2022-12-20T00:06:06;69.10;;;35.67;;
53618;SDS011;39505;53.040;18.488;2022-12-20T00:06:20;68.63;;;35.78;;
53618;SDS011;39505;53.040;18.488;2022-12-20T00:06:33;65.22;;;35.70;;
53618;SDS011;39505;53.040;18.488;2022-12-20T00:06:48;64.10;;;35.88;;
53618;SDS011;39505;53.040;18.488;2022-12-20T00:07:01;65.15;;;36.25;;
53618;SDS011;39505;53.040;18.488;2022-12-20T00:07:13;66.28;;;36.47;;
53618;SDS011;39505;53.040;18.488;2022-12-20T00:07:26;66.32;;;36.40;;
53618;SDS011;39505;53.040;18.488;2022-12-20T00:07:38;65.80;;;35.88;;
53618;SDS011;39505;53.040;18.488;2022-12-20T00:07:51;67.72;;;35.88;;
53618;SDS011;39505;53.040;18.488;2022-12-20T00:08:05;68.28;;;36.45;;
53618;SDS011;39505;53.040;18.488;2022-12-20T00:08:18;66.43;;;36.10;;
53618;SDS011;39505;53.040;18.488;2022-12-20T00:08:30;64.82;;;35.28;;
53618;SDS011;39505;53.040;18.488;2022-12-20T00:08:43;66.20;;;35.35;;
53618;SDS011;39505;53.040;18.488;2022-12-20T00:08:57;69.22;;;34.90;;
53618;SDS011;39505;53.040;18.488;2022-12-20T00:09:11;68.15;;;35.03;;
53618;SDS011;39505;53.040;18.488;2022-12-20T00:09:24;66.22;;;35.40;;
53618;SDS011;39505;53.040;18.488;2022-12-20T00:09:37;64.88;;;35.53;;
53618;SDS011;39505;53.040;18.488;2022-12-20T00:09:50;65.78;;;35.03;;
53618;SDS011;39505;53.040;18.488;2022-12-20T00:10:03;66.28;;;34.65;;
53618;SDS011;39505;53.040;18.488;2022-12-20T00:10:16;67.93;;;35.70;;
53618;SDS011;39505;53.040;18.488;2022-12-20T00:10:28;69.32;;;37.03;;
53618;SDS011;39505;53.040;18.488;2022-12-20T00:10:43;68.15;;;36.75;;
53618;SDS011;39505;53.040;18.488;2022-12-20T00:10:58;66.13;;;35.65;;
53618;SDS011;39505;53.040;18.488;2022-12-20T00:11:12;65.60;;;35.33;;
53618;SDS011;39505;53.040;18.488;2022-12-20T00:11:25;67.15;;;35.45;;
53618;SDS011;39505;53.040;18.488;2022-12-20T00:11:39;69.13;;;36.13;;
53618;SDS011;39505;53.040;18.488;2022-12-20T00:11:53;70.45;;;36.05;;
53618;SDS011;39505;53.040;18.488;2022-12-20T00:12:06;68.53;;;35.72;;
53618;SDS011;39505;53.040;18.488;2022-12-20T00:12:18;66.50;;;35.88;;
53618;SDS011;39505;53.040;18.488;2022-12-20T00:12:31;66.05;;;35.28;;
53618;SDS011;39505;53.040;18.488;2022-12-20T00:12:44;67.43;;;35.35;;
53618;SDS011;39505;53.040;18.488;2022-12-20T00:12:56;65.72;;;35.45;;
53618;SDS011;39505;53.040;18.488;2022-12-20T00:13:09;65.68;;;34.88;;
53618;SDS011;39505;53.040;18.488;2022-12-20T00:13:24;65.85;;;34.35;;
53618;SDS011;39505;53.040;18.488;2022-12-20T00:13:37;63.38;;;34.28;;
53618;SDS011;39505;53.040;18.488;2022-12-20T00:13:50;63.78;;;34.22;;
53618;SDS011;39505;53.040;18.488;2022-12-20T00:14:03;63.85;;;34.10;;
53618;SDS011;39505;53.040;18.488;2022-12-20T00:14:16;65.75;;;34.05;;
53618;SDS011;39505;53.040;18.488;2022-12-20T00:14:28;67.47;;;34.53;;
53618;SDS011;39505;53.040;18.488;2022-12-20T00:14:42;65.90;;;34.05;;
53618;SDS011;39505;53.040;18.488;2022-12-20T00:14:55;63.10;;;33.83;;
53618;SDS011;39505;53.040;18.488;2022-12-20T00:15:08;63.13;;;33.90;;
53618;SDS011;39505;53.040;18.488;2022-12-20T00:15:21;62.00;;;34.30;;
53618;SDS011;39505;53.040;18.488;2022-12-20T00:15:33;64.28;;;35.05;;
53618;SDS011;39505;53.040;18.488;2022-12-20T00:15:47;65.88;;;35.17;;
53618;SDS011;39505;53.040;18.488;2022-12-20T00:16:03;65.07;;;35.38;;
53618;SDS011;39505;53.040;18.488;2022-12-20T00:16:18;63.25;;;35.00;;
53618;SDS011;39505;53.040;18.488;2022-12-20T00:16:33;63.75;;;34.63;;
53618;SDS011;39505;53.040;18.488;2022-12-20T00:16:46;61.90;;;33.67;;
53618;SDS011;39505;53.040;18.488;2022-12-20T00:16:59;62.03;;;34.08;;
53618;SDS011;39505;53.040;18.488;2022-12-20T00:17:12;63.78;;;34.97;;
53618;SDS011;39505;53.040;18.488;2022-12-20T00:17:24;62.42;;;34.30;;
53618;SDS011;39505;53.040;18.488;2022-12-20T00:17:38;60.28;;;33.25;;
53618;SDS011;39505;53.040;18.488;2022-12-20T00:17:51;60.35;;;32.00;;
53618;SDS011;39505;53.040;18.488;2022-12-20T00:18:05;59.13;;;31.75;;
53618;SDS011;39505;53.040;18.488;2022-12-20T00:18:18;59.08;;;32.38;;
53618;SDS011;39505;53.040;18.488;2022-12-20T00:18:30;59.20;;;32.05;;
53618;SDS011;39505;53.040;18.488;2022-12-20T00:18:43;59.85;;;31.48;;
53618;SDS011;39505;53.040;18.488;2022-12-20T00:18:57;61.67;;;31.67;;
53618;SDS011;39505;53.040;18.488;2022-12-20T00:19:10;62.28;;;32.40;;
53618;SDS011;39505;53.040;18.488;2022-12-20T00:19:24;58.35;;;31.80;;
53618;SDS011;39505;53.040;18.488;2022-12-20T00:19:37;57.63;;;31.98;;
53618;SDS011;39505;53.040;18.488;2022-12-20T00:19:50;60.33;;;32.42;;
53618;SDS011;39505;53.040;18.488;2022-12-20T00:20:03;61.08;;;32.72;;
53618;SDS011;39505;53.040;18.488;2022-12-20T00:20:16;60.42;;;32.15;;
53618;SDS011;39505;53.040;18.488;2022-12-20T00:20:29;61.28;;;31.98;;
53618;SDS011;39505;53.040;18.488;2022-12-20T00:20:43;61.63;;;32.30;;
53618;SDS011;39505;53.040;18.488;2022-12-20T00:20:56;61.90;;;32.67;;
53618;SDS011;39505;53.040;18.488;2022-12-20T00:21:10;61.38;;;32.53;;
53618;SDS011;39505;53.040;18.488;2022-12-20T00:21:24;61.15;;;31.95;;
53618;SDS011;39505;53.040;18.488;2022-12-20T00:21:36;61.25;;;31.88;;
53618;SDS011;39505;53.040;18.488;2022-12-20T00:21:49;62.03;;;32.58;;
53618;SDS011;39505;53.040;18.488;2022-12-20T00:22:03;60.88;;;32.58;;
53618;SDS011;39505;53.040;18.488;2022-12-20T00:22:15;61.28;;;32.45;;
53618;SDS011;39505;53.040;18.488;2022-12-20T00:22:28;61.05;;;32.30;;
53618;SDS011;39505;53.040;18.488;2022-12-20T00:22:41;63.22;;;33.15;;
53618;SDS011;39505;53.040;18.488;2022-12-20T00:22:53;61.10;;;32.78;;
53618;SDS011;39505;53.040;18.488;2022-12-20T00:23:06;60.13;;;32.50;;
53618;SDS011;39505;53.040;18.488;2022-12-20T00:23:19;59.60;;;32.58;;
53618;SDS011;39505;53.040;18.488;2022-12-20T00:23:32;60.47;;;33.42;;
53618;SDS011;39505;53.040;18.488;2022-12-20T00:23:47;61.88;;;32.88;;
53618;SDS011;39505;53.040;18.488;2022-12-20T00:24:00;61.38;;;32.42;;
53618;SDS011;39505;53.040;18.488;2022-12-20T00:24:13;59.05;;;32.50;;
53618;SDS011;39505;53.040;18.488;2022-12-20T00:24:29;60.95;;;32.13;;
53618;SDS011;39505;53.040;18.488;2022-12-20T00:24:41;62.47;;;32.92;;
53618;SDS011;39505;53.040;18.488;2022-12-20T00:24:55;61.05;;;33.30;;
53618;SDS011;39505;53.040;18.488;2022-12-20T00:25:08;58.90;;;32.97;;
53618;SDS011;39505;53.040;18.488;2022-12-20T00:25:21;60.08;;;33.30;;
53618;SDS011;39505;53.040;18.488;2022-12-20T00:25:33;60.90;;;32.92;;
53618;SDS011;39505;53.040;18.488;2022-12-20T00:25:46;64.63;;;33.13;;
53618;SDS011;39505;53.040;18.488;2022-12-20T00:25:59;61.33;;;32.83;;
53618;SDS011;39505;53.040;18.488;2022-12-20T00:26:14;57.78;;;32.40;;
53618;SDS011;39505;53.040;18.488;2022-12-20T00:26:30;59.38;;;32.80;;
53618;SDS011;39505;53.040;18.488;2022-12-20T00:26:44;60.63;;;33.25;;
53618;SDS011;39505;53.040;18.488;2022-12-20T00:26:56;58.13;;;32.72;;
53618;SDS011;39505;53.040;18.488;2022-12-20T00:27:09;59.10;;;32.78;;
53618;SDS011;39505;53.040;18.488;2022-12-20T00:27:23;59.92;;;32.42;;
53618;SDS011;39505;53.040;18.488;2022-12-20T00:27:35;58.67;;;31.92;;
53618;SDS011;39505;53.040;18.488;2022-12-20T00:27:48;58.13;;;31.83;;
53618;SDS011;39505;53.040;18.488;2022-12-20T00:28:01;60.70;;;31.77;;
53618;SDS011;39505;53.040;18.488;2022-12-20T00:28:15;62.75;;;32.03;;
53618;SDS011;39505;53.040;18.488;2022-12-20T00:28:28;60.20;;;32.13;;
53618;SDS011;39505;53.040;18.488;2022-12-20T00:28:41;59.65;;;31.65;;
53618;SDS011;39505;53.040;18.488;2022-12-20T00:28:54;59.55;;;31.45;;
53618;SDS011;39505;53.040;18.488;2022-12-20T00:29:08;59.33;;;31.27;;
53618;SDS011;39505;53.040;18.488;2022-12-20T00:29:20;59.65;;;30.95;;
53618;SDS011;39505;53.040;18.488;2022-12-20T00:29:33;59.53;;;30.95;;
53618;SDS011;39505;53.040;18.488;2022-12-20T00:29:46;59.78;;;31.40;;
53618;SDS011;39505;53.040;18.488;2022-12-20T00:29:59;57.53;;;31.42;;
53618;SDS011;39505;53.040;18.488;2022-12-20T00:30:12;56.28;;;30.58;;
53618;SDS011;39505;53.040;18.488;2022-12-20T00:30:25;56.72;;;30.52;;
53618;SDS011;39505;53.040;18.488;2022-12-20T00:30:39;57.45;;;30.75;;
53618;SDS011;39505;53.040;18.488;2022-12-20T00:30:52;56.17;;;30.63;;
53618;SDS011;39505;53.040;18.488;2022-12-20T00:31:06;59.45;;;31.15;;
53618;SDS011;39505;53.040;18.488;2022-12-20T00:31:24;60.45;;;31.35;;
53618;SDS011;39505;53.040;18.488;2022-12-20T00:31:37;57.22;;;30.77;;
53618;SDS011;39505;53.040;18.488;2022-12-20T00:31:50;56.20;;;30.55;;
53618;SDS011;39505;53.040;18.488;2022-12-20T00:32:03;55.95;;;30.40;;
53618;SDS011;39505;53.040;18.488;2022-12-20T00:32:17;57.90;;;30.88;;
53618;SDS011;39505;53.040;18.488;2022-12-20T00:32:30;59.95;;;31.15;;
53618;SDS011;39505;53.040;18.488;2022-12-20T00:32:44;59.70;;;30.92;;
53618;SDS011;39505;53.040;18.488;2022-12-20T00:32:57;58.33;;;30.98;;
53618;SDS011;39505;53.040;18.488;2022-12-20T00:33:09;56.22;;;30.63;;
53618;SDS011;39505;53.040;18.488;2022-12-20T00:33:22;59.05;;;30.90;;
53618;SDS011;39505;53.040;18.488;2022-12-20T00:33:35;58.65;;;30.50;;
53618;SDS011;39505;53.040;18.488;2022-12-20T00:33:52;56.63;;;29.90;;
53618;SDS011;39505;53.040;18.488;2022-12-20T00:34:06;57.78;;;30.00;;
53618;SDS011;39505;53.040;18.488;2022-12-20T00:34:18;55.95;;;30.05;;
53618;SDS011;39505;53.040;18.488;2022-12-20T00:34:32;56.78;;;29.92;;
53618;SDS011;39505;53.040;18.488;2022-12-20T00:34:44;56.63;;;29.80;;
53618;SDS011;39505;53.040;18.488;2022-12-20T00:34:57;56.30;;;29.75;;
53618;SDS011;39505;53.040;18.488;2022-12-20T00:35:10;55.60;;;30.00;;
53618;SDS011;39505;53.040;18.488;2022-12-20T00:35:24;58.33;;;30.55;;
53618;SDS011;39505;53.040;18.488;2022-12-20T00:35:40;57.33;;;29.83;;
53618;SDS011;39505;53.040;18.488;2022-12-20T00:35:53;54.00;;;28.95;;
53618;SDS011;39505;53.040;18.488;2022-12-20T00:36:07;54.40;;;29.63;;
53618;SDS011;39505;53.040;18.488;2022-12-20T00:36:21;55.88;;;29.83;;
53618;SDS011;39505;53.040;18.488;2022-12-20T00:36:35;58.70;;;30.08;;
53618;SDS011;39505;53.040;18.488;2022-12-20T00:36:50;58.67;;;30.40;;
53618;SDS011;39505;53.040;18.488;2022-12-20T00:37:03;55.50;;;29.63;;
53618;SDS011;39505;53.040;18.488;2022-12-20T00:37:16;54.58;;;28.70;;
53618;SDS011;39505;53.040;18.488;2022-12-20T00:37:28;55.33;;;28.63;;
53618;SDS011;39505;53.040;18.488;2022-12-20T00:37:41;57.60;;;29.38;;
53618;SDS011;39505;53.040;18.488;2022-12-20T00:37:53;57.58;;;29.70;;
53618;SDS011;39505;53.040;18.488;2022-12-20T00:38:07;56.45;;;29.80;;
53618;SDS011;39505;53.040;18.488;2022-12-20T00:38:20;56.72;;;29.98;;
53618;SDS011;39505;53.040;18.488;2022-12-20T00:38:32;58.15;;;30.23;;
53618;SDS011;39505;53.040;18.488;2022-12-20T00:38:46;57.88;;;30.02;;
53618;SDS011;39505;53.040;18.488;2022-12-20T00:38:59;56.35;;;29.77;;
53618;SDS011;39505;53.040;18.488;2022-12-20T00:39:12;55.95;;;29.65;;
53618;SDS011;39505;53.040;18.488;2022-12-20T00:39:25;58.20;;;29.60;;
53618;SDS011;39505;53.040;18.488;2022-12-20T00:39:38;57.80;;;29.58;;
53618;SDS011;39505;53.040;18.488;2022-12-20T00:39:51;55.83;;;29.65;;
53618;SDS011;39505;53.040;18.488;2022-12-20T00:40:04;56.67;;;30.27;;
53618;SDS011;39505;53.040;18.488;2022-12-20T00:40:18;57.88;;;30.13;;
53618;SDS011;39505;53.040;18.488;2022-12-20T00:40:30;59.38;;;29.88;;
53618;SDS011;39505;53.040;18.488;2022-12-20T00:40:43;59.45;;;30.00;;
53618;SDS011;39505;53.040;18.488;2022-12-20T00:40:59;58.28;;;30.30;;
53618;SDS011;39505;53.040;18.488;2022-12-20T00:41:14;58.10;;;30.52;;
53618;SDS011;39505;53.040;18.488;2022-12-20T00:41:29;59.85;;;30.30;;
53618;SDS011;39505;53.040;18.488;2022-12-20T00:41:43;60.78;;;30.80;;
53618;SDS011;39505;53.040;18.488;2022-12-20T00:41:55;59.00;;;31.20;;
53618;SDS011;39505;53.040;18.488;2022-12-20T00:42:08;60.22;;;31.98;;
53618;SDS011;39505;53.040;18.488;2022-12-20T00:42:21;59.78;;;31.40;;
53618;SDS011;39505;53.040;18.488;2022-12-20T00:42:33;57.67;;;31.05;;
53618;SDS011;39505;53.040;18.488;2022-12-20T00:42:47;57.85;;;31.55;;
53618;SDS011;39505;53.040;18.488;2022-12-20T00:43:00;58.30;;;31.27;;
53618;SDS011;39505;53.040;18.488;2022-12-20T00:43:12;56.75;;;30.52;;
53618;SDS011;39505;53.040;18.488;2022-12-20T00:43:25;56.63;;;30.08;;
53618;SDS011;39505;53.040;18.488;2022-12-20T00:43:38;57.97;;;30.00;;
53618;SDS011;39505;53.040;18.488;2022-12-20T00:43:51;59.97;;;30.80;;
53618;SDS011;39505;53.040;18.488;2022-12-20T00:44:04;59.00;;;30.75;;
53618;SDS011;39505;53.040;18.488;2022-12-20T00:44:18;57.35;;;30.55;;
53618;SDS011;39505;53.040;18.488;2022-12-20T00:44:30;58.88;;;31.00;;
53618;SDS011;39505;53.040;18.488;2022-12-20T00:44:43;58.85;;;30.58;;
53618;SDS011;39505;53.040;18.488;2022-12-20T00:44:55;57.30;;;29.90;;
53618;SDS011;39505;53.040;18.488;2022-12-20T00:45:08;58.13;;;30.27;;
53618;SDS011;39505;53.040;18.488;2022-12-20T00:45:21;59.63;;;31.17;;
53618;SDS011;39505;53.040;18.488;2022-12-20T00:45:34;57.80;;;30.98;;
53618;SDS011;39505;53.040;18.488;2022-12-20T00:45:47;58.33;;;29.95;;
53618;SDS011;39505;53.040;18.488;2022-12-20T00:45:59;57.05;;;30.05;;
53618;SDS011;39505;53.040;18.488;2022-12-20T00:46:14;56.45;;;30.38;;
53618;SDS011;39505;53.040;18.488;2022-12-20T00:46:28;58.55;;;30.42;;
53618;SDS011;39505;53.040;18.488;2022-12-20T00:46:42;59.17;;;29.98;;
53618;SDS011;39505;53.040;18.488;2022-12-20T00:46:55;57.58;;;29.77;;
53618;SDS011;39505;53.040;18.488;2022-12-20T00:47:08;57.30;;;29.98;;
53618;SDS011;39505;53.040;18.488;2022-12-20T00:47:21;58.17;;;30.33;;
53618;SDS011;39505;53.040;18.488;2022-12-20T00:47:34;58.05;;;30.70;;
53618;SDS011;39505;53.040;18.488;2022-12-20T00:47:48;57.05;;;30.52;;
53618;SDS011;39505;53.040;18.488;2022-12-20T00:48:01;57.13;;;30.42;;
53618;SDS011;39505;53.040;18.488;2022-12-20T00:48:14;58.03;;;30.63;;
53618;SDS011;39505;53.040;18.488;2022-12-20T00:48:27;58.03;;;30.27;;
53618;SDS011;39505;53.040;18.488;2022-12-20T00:48:40;57.90;;;29.33;;
53618;SDS011;39505;53.040;18.488;2022-12-20T00:48:53;57.72;;;29.08;;
53618;SDS011;39505;53.040;18.488;2022-12-20T00:49:08;56.58;;;29.05;;
53618;SDS011;39505;53.040;18.488;2022-12-20T00:49:20;56.97;;;29.20;;
53618;SDS011;39505;53.040;18.488;2022-12-20T00:49:33;58.42;;;29.83;;
53618;SDS011;39505;53.040;18.488;2022-12-20T00:49:46;58.38;;;30.20;;
53618;SDS011;39505;53.040;18.488;2022-12-20T00:49:59;56.90;;;30.17;;
53618;SDS011;39505;53.040;18.488;2022-12-20T00:50:11;55.42;;;29.77;;
53618;SDS011;39505;53.040;18.488;2022-12-20T00:50:24;57.40;;;29.70;;
53618;SDS011;39505;53.040;18.488;2022-12-20T00:50:38;58.53;;;30.08;;
53618;SDS011;39505;53.040;18.488;2022-12-20T00:50:51;59.10;;;29.95;;
53618;SDS011;39505;53.040;18.488;2022-12-20T00:51:04;57.88;;;29.30;;
53618;SDS011;39505;53.040;18.488;2022-12-20T00:51:19;57.05;;;29.52;;
53618;SDS011;39505;53.040;18.488;2022-12-20T00:51:33;56.67;;;30.10;;
53618;SDS011;39505;53.040;18.488;2022-12-20T00:51:46;58.08;;;30.67;;
53618;SDS011;39505;53.040;18.488;2022-12-20T00:51:59;59.60;;;30.65;;
53618;SDS011;39505;53.040;18.488;2022-12-20T00:52:12;59.88;;;30.88;;
53618;SDS011;39505;53.040;18.488;2022-12-20T00:52:25;57.55;;;30.23;;
53618;SDS011;39505;53.040;18.488;2022-12-20T00:52:37;56.95;;;29.88;;
53618;SDS011;39505;53.040;18.488;2022-12-20T00:52:50;56.65;;;29.50;;
53618;SDS011;39505;53.040;18.488;2022-12-20T00:53:02;59.10;;;30.27;;
53618;SDS011;39505;53.040;18.488;2022-12-20T00:53:15;57.30;;;29.30;;
53618;SDS011;39505;53.040;18.488;2022-12-20T00:53:37;56.88;;;29.50;;
53618;SDS011;39505;53.040;18.488;2022-12-20T00:53:50;55.45;;;29.38;;
53618;SDS011;39505;53.040;18.488;2022-12-20T00:54:04;53.85;;;29.10;;
53618;SDS011;39505;53.040;18.488;2022-12-20T00:54:16;55.15;;;29.02;;
53618;SDS011;39505;53.040;18.488;2022-12-20T00:54:30;56.60;;;29.45;;
53618;SDS011;39505;53.040;18.488;2022-12-20T00:54:43;55.85;;;29.38;;
53618;SDS011;39505;53.040;18.488;2022-12-20T00:54:55;55.35;;;28.77;;
53618;SDS011;39505;53.040;18.488;2022-12-20T00:55:08;56.85;;;29.13;;
53618;SDS011;39505;53.040;18.488;2022-12-20T00:55:20;57.67;;;29.60;;
53618;SDS011;39505;53.040;18.488;2022-12-20T00:55:33;57.08;;;30.08;;
53618;SDS011;39505;53.040;18.488;2022-12-20T00:55:46;56.78;;;30.10;;
53618;SDS011;39505;53.040;18.488;2022-12-20T00:55:58;56.72;;;29.60;;
53618;SDS011;39505;53.040;18.488;2022-12-20T00:56:12;57.10;;;29.50;;
53618;SDS011;39505;53.040;18.488;2022-12-20T00:56:25;57.63;;;29.60;;
53618;SDS011;39505;53.040;18.488;2022-12-20T00:56:38;57.83;;;29.15;;
53618;SDS011;39505;53.040;18.488;2022-12-20T00:56:51;57.95;;;29.70;;
53618;SDS011;39505;53.040;18.488;2022-12-20T00:57:03;58.03;;;29.75;;
53618;SDS011;39505;53.040;18.488;2022-12-20T00:57:16;59.70;;;29.73;;
53618;SDS011;39505;53.040;18.488;2022-12-20T00:57:29;59.03;;;30.05;;
53618;SDS011;39505;53.040;18.488;2022-12-20T00:57:42;56.88;;;29.83;;
53618;SDS011;39505;53.040;18.488;2022-12-20T00:57:55;54.78;;;29.02;;
53618;SDS011;39505;53.040;18.488;2022-12-20T00:58:07;55.53;;;29.40;;
53618;SDS011;39505;53.040;18.488;2022-12-20T00:58:20;54.95;;;29.20;;
53618;SDS011;39505;53.040;18.488;2022-12-20T00:58:33;55.78;;;29.85;;
53618;SDS011;39505;53.040;18.488;2022-12-20T00:58:48;57.65;;;30.17;;
53618;SDS011;39505;53.040;18.488;2022-12-20T00:59:01;57.50;;;29.75;;
53618;SDS011;39505;53.040;18.488;2022-12-20T00:59:14;56.92;;;29.75;;
53618;SDS011;39505;53.040;18.488;2022-12-20T00:59:26;56.55;;;30.05;;
53618;SDS011;39505;53.040;18.488;2022-12-20T00:59:39;57.67;;;29.88;;
53618;SDS011;39505;53.040;18.488;2022-12-20T00:59:51;57.13;;;29.65;;
53618;SDS011;39505;53.040;18.488;2022-12-20T01:00:05;58.20;;;30.23;;
53618;SDS011;39505;53.040;18.488;2022-12-20T01:00:19;57.47;;;30.15;;
53618;SDS011;39505;53.040;18.488;2022-12-20T01:00:32;56.60;;;29.77;;
53618;SDS011;39505;53.040;18.488;2022-12-20T01:00:45;56.83;;;29.25;;
53618;SDS011;39505;53.040;18.488;2022-12-20T01:01:14;58.05;;;30.23;;
53618;SDS011;39505;53.040;18.488;2022-12-20T01:01:30;57.70;;;29.73;;
53618;SDS011;39505;53.040;18.488;2022-12-20T01:01:46;57.40;;;29.33;;
53618;SDS011;39505;53.040;18.488;2022-12-20T01:01:59;55.28;;;29.27;;
53618;SDS011;39505;53.040;18.488;2022-12-20T01:02:12;55.58;;;29.35;;
53618;SDS011;39505;53.040;18.488;2022-12-20T01:02:25;58.00;;;30.38;;
53618;SDS011;39505;53.040;18.488;2022-12-20T01:02:38;58.08;;;30.77;;
53618;SDS011;39505;53.040;18.488;2022-12-20T01:02:52;56.22;;;30.02;;
53618;SDS011;39505;53.040;18.488;2022-12-20T01:03:05;54.92;;;29.08;;
53618;SDS011;39505;53.040;18.488;2022-12-20T01:03:20;55.55;;;28.58;;
53618;SDS011;39505;53.040;18.488;2022-12-20T01:03:33;56.10;;;28.60;;
53618;SDS011;39505;53.040;18.488;2022-12-20T01:03:46;56.63;;;29.02;;
53618;SDS011;39505;53.040;18.488;2022-12-20T01:03:59;57.05;;;29.25;;
53618;SDS011;39505;53.040;18.488;2022-12-20T01:04:12;57.72;;;29.30;;
53618;SDS011;39505;53.040;18.488;2022-12-20T01:04:26;57.45;;;29.38;;
53618;SDS011;39505;53.040;18.488;2022-12-20T01:04:38;57.20;;;29.73;;
53618;SDS011;39505;53.040;18.488;2022-12-20T01:04:51;57.45;;;29.85;;
53618;SDS011;39505;53.040;18.488;2022-12-20T01:05:04;58.30;;;30.38;;
53618;SDS011;39505;53.040;18.488;2022-12-20T01:05:17;56.25;;;29.73;;
53618;SDS011;39505;53.040;18.488;2022-12-20T01:05:30;54.55;;;29.08;;
53618;SDS011;39505;53.040;18.488;2022-12-20T01:05:48;56.28;;;29.05;;
53618;SDS011;39505;53.040;18.488;2022-12-20T01:06:04;56.90;;;29.08;;
53618;SDS011;39505;53.040;18.488;2022-12-20T01:06:16;55.00;;;28.83;;
53618;SDS011;39505;53.040;18.488;2022-12-20T01:06:30;55.70;;;28.85;;
53618;SDS011;39505;53.040;18.488;2022-12-20T01:06:43;58.63;;;30.00;;
53618;SDS011;39505;53.040;18.488;2022-12-20T01:06:56;59.15;;;30.27;;
53618;SDS011;39505;53.040;18.488;2022-12-20T01:07:09;55.72;;;29.17;;
53618;SDS011;39505;53.040;18.488;2022-12-20T01:07:22;55.55;;;29.00;;
53618;SDS011;39505;53.040;18.488;2022-12-20T01:07:35;56.70;;;29.25;;
53618;SDS011;39505;53.040;18.488;2022-12-20T01:07:48;58.70;;;30.02;;
53618;SDS011;39505;53.040;18.488;2022-12-20T01:08:00;59.08;;;30.23;;
53618;SDS011;39505;53.040;18.488;2022-12-20T01:08:13;57.83;;;30.30;;
53618;SDS011;39505;53.040;18.488;2022-12-20T01:08:27;55.84;;;28.96;;
53618;SDS011;39505;53.040;18.488;2022-12-20T01:08:41;53.75;;;28.45;;
53618;SDS011;39505;53.040;18.488;2022-12-20T01:08:54;55.33;;;28.98;;
53618;SDS011;39505;53.040;18.488;2022-12-20T01:09:09;55.35;;;28.85;;
53618;SDS011;39505;53.040;18.488;2022-12-20T01:09:21;54.80;;;28.92;;
53618;SDS011;39505;53.040;18.488;2022-12-20T01:09:34;55.85;;;28.73;;
53618;SDS011;39505;53.040;18.488;2022-12-20T01:09:47;58.85;;;29.20;;
53618;SDS011;39505;53.040;18.488;2022-12-20T01:10:01;58.70;;;29.54;;
53618;SDS011;39505;53.040;18.488;2022-12-20T01:10:14;57.33;;;29.58;;
53618;SDS011;39505;53.040;18.488;2022-12-20T01:10:26;56.53;;;29.02;;
53618;SDS011;39505;53.040;18.488;2022-12-20T01:10:39;56.67;;;28.98;;
53618;SDS011;39505;53.040;18.488;2022-12-20T01:10:58;58.28;;;29.52;;
53618;SDS011;39505;53.040;18.488;2022-12-20T01:11:12;57.55;;;29.83;;
53618;SDS011;39505;53.040;18.488;2022-12-20T01:11:28;55.38;;;28.92;;
53618;SDS011;39505;53.040;18.488;2022-12-20T01:11:44;57.65;;;29.88;;
53618;SDS011;39505;53.040;18.488;2022-12-20T01:11:56;57.78;;;30.35;;
53618;SDS011;39505;53.040;18.488;2022-12-20T01:12:09;55.97;;;29.83;;
53618;SDS011;39505;53.040;18.488;2022-12-20T01:12:22;55.83;;;29.30;;
53618;SDS011;39505;53.040;18.488;2022-12-20T01:12:35;54.30;;;29.05;;
53618;SDS011;39505;53.040;18.488;2022-12-20T01:12:47;54.88;;;29.30;;
53618;SDS011;39505;53.040;18.488;2022-12-20T01:13:00;55.33;;;29.13;;
53618;SDS011;39505;53.040;18.488;2022-12-20T01:13:13;58.38;;;29.90;;
53618;SDS011;39505;53.040;18.488;2022-12-20T01:13:26;60.45;;;30.50;;
53618;SDS011;39505;53.040;18.488;2022-12-20T01:13:41;59.60;;;30.30;;
53618;SDS011;39505;53.040;18.488;2022-12-20T01:13:56;57.30;;;29.48;;
53618;SDS011;39505;53.040;18.488;2022-12-20T01:14:14;58.25;;;30.05;;
53618;SDS011;39505;53.040;18.488;2022-12-20T01:14:27;59.70;;;30.88;;
53618;SDS011;39505;53.040;18.488;2022-12-20T01:14:40;59.88;;;31.05;;
53618;SDS011;39505;53.040;18.488;2022-12-20T01:14:53;59.45;;;31.40;;
53618;SDS011;39505;53.040;18.488;2022-12-20T01:15:06;60.00;;;31.65;;
53618;SDS011;39505;53.040;18.488;2022-12-20T01:15:20;63.80;;;33.08;;
53618;SDS011;39505;53.040;18.488;2022-12-20T01:15:33;64.18;;;33.47;;
53618;SDS011;39505;53.040;18.488;2022-12-20T01:15:46;62.83;;;33.28;;
53618;SDS011;39505;53.040;18.488;2022-12-20T01:16:02;60.50;;;33.42;;
53618;SDS011;39505;53.040;18.488;2022-12-20T01:16:17;60.22;;;33.85;;
53618;SDS011;39505;53.040;18.488;2022-12-20T01:16:34;59.65;;;32.60;;
53618;SDS011;39505;53.040;18.488;2022-12-20T01:16:48;60.83;;;32.55;;
53618;SDS011;39505;53.040;18.488;2022-12-20T01:17:01;62.58;;;33.55;;
53618;SDS011;39505;53.040;18.488;2022-12-20T01:17:14;62.15;;;32.80;;
53618;SDS011;39505;53.040;18.488;2022-12-20T01:17:26;60.83;;;31.85;;
53618;SDS011;39505;53.040;18.488;2022-12-20T01:17:40;58.30;;;30.73;;